»·PEaware :: N350KT KHLN-KGEG

N350KT :: KHLN-KGEG

FLIGHT INFORMATION

Flight Status: Arrived
Operator: Privately registered:
United States
More flights under this callsign
Pilot: Aundrey S. (17120)
Aircraft: BEECH AIRCRAFT BEECH AIRLINER
(B190)
More flights by this aircraft type
Origin: KHLN Helena Regl
United States
Destination: KGEG Spokane Intl
United States
More flights between these airports :: More routes between these airports
Route: HLN4 HLN MSO INE MLP HILIE2
File this flight plan on PilotEdge
Remarks:
Altitude:
(Current/Filed)
18,000ft
Speed:
(Current/Filed)
350kts
Departed: 08-May-18 03:43 PM
Arrived: 08-May-18 05:02 PM
Distance/Time
Traveled:
234nm/1:19
Distance/Time
To Go:
Arrived

Flight Plot

Page will automatically refresh every two minutes.

Flight plan parsing failed; only flown route is shown


Map Options




Map Legend


Flown Route
Filed Route
Departure Airport
Arrival Airport
Navaid (VOR, NDB)
Fix

Horizontal Profiles

Position Reports

Time Latitude Longitude Heading Altitude Ground
Speed
08-May-18 15:16 46.602872 -111.994880 269 3885ft 0kts
08-May-18 15:17 46.602872 -111.994880 269 3885ft 0kts
08-May-18 15:18 46.602872 -111.994880 269 3885ft 0kts
08-May-18 15:19 46.602872 -111.994880 269 3885ft 0kts
08-May-18 15:20 46.602872 -111.994880 269 3885ft 0kts
08-May-18 15:21 46.602872 -111.994880 269 3885ft 0kts
08-May-18 15:22 46.602872 -111.994880 269 3885ft 0kts
08-May-18 15:23 46.602872 -111.994880 269 3885ft 0kts
08-May-18 15:24 46.602872 -111.994880 269 3885ft 0kts
08-May-18 15:25 46.602872 -111.994880 269 3885ft 0kts
08-May-18 15:26 46.602872 -111.994880 269 3885ft 0kts
08-May-18 15:27 46.602872 -111.994880 269 3885ft 0kts
08-May-18 15:28 46.602872 -111.994880 269 3885ft 0kts
08-May-18 15:29 46.602872 -111.994880 269 3885ft 0kts
08-May-18 15:30 46.602872 -111.994880 269 3885ft 0kts
08-May-18 15:31 46.602872 -111.994880 269 3885ft 0kts
08-May-18 15:32 46.602872 -111.994880 269 3885ft 0kts
08-May-18 15:33 46.602872 -111.994880 269 3885ft 0kts
08-May-18 15:34 46.602883 -111.995023 284 3885ft 4kts
08-May-18 15:35 46.603352 -111.989662 87 3872ft 19kts
08-May-18 15:36 46.603570 -111.982353 88 3860ft 15kts
08-May-18 15:37 46.603485 -111.976878 96 3860ft 14kts
08-May-18 15:38 46.602834 -111.969870 102 3852ft 19kts
08-May-18 15:39 46.602008 -111.963485 58 3846ft 8kts
08-May-18 15:40 46.602096 -111.963335 42 3845ft 0kts
08-May-18 15:41 46.602096 -111.963335 42 3845ft 0kts
08-May-18 15:42 46.602478 -111.963087 10 3844ft 7kts
08-May-18 15:43 46.610538 -111.991245 325 4287ft 164kts
08-May-18 15:44 46.660766 -111.981026 15 6151ft 206kts
08-May-18 15:45 46.720575 -111.976417 351 7493ft 227kts
08-May-18 15:46 46.760069 -112.034611 326 8761ft 237kts
08-May-18 15:47 46.794760 -111.987788 123 9960ft 230kts
08-May-18 15:48 46.742926 -111.939691 150 11578ft 219kts
08-May-18 15:49 46.689731 -111.896980 154 12948ft 227kts
08-May-18 15:50 46.629126 -111.849960 154 12979ft 259kts
08-May-18 15:51 46.564977 -111.799562 154 12975ft 265kts
08-May-18 15:52 46.504433 -111.751164 153 14293ft 232kts
08-May-18 15:53 46.464541 -111.771853 288 15608ft 203kts
08-May-18 15:54 46.498491 -111.834352 280 17091ft 190kts
08-May-18 15:55 46.536305 -111.887656 325 17822ft 212kts
08-May-18 15:56 46.588158 -111.935891 322 18114ft 238kts
08-May-18 15:57 46.616386 -112.022274 282 18099ft 255kts
08-May-18 15:58 46.632244 -112.125324 281 18104ft 264kts
08-May-18 15:59 46.647842 -112.229934 281 18103ft 266kts
08-May-18 16:00 46.663384 -112.335245 281 18101ft 266kts
08-May-18 16:01 46.678866 -112.440888 281 18099ft 266kts
08-May-18 16:02 46.694076 -112.546186 282 18097ft 265kts
08-May-18 16:03 46.709356 -112.650493 281 18092ft 263kts
08-May-18 16:04 46.724099 -112.753962 282 18103ft 264kts
08-May-18 16:05 46.739075 -112.858852 282 18102ft 265kts
08-May-18 16:06 46.753983 -112.964136 282 18099ft 265kts
08-May-18 16:07 46.768918 -113.069080 278 18077ft 265kts
08-May-18 16:08 46.783486 -113.174668 278 18075ft 266kts
08-May-18 16:09 46.798153 -113.280635 278 18070ft 266kts
08-May-18 16:10 46.812685 -113.386266 279 18071ft 266kts
08-May-18 16:11 46.827144 -113.492174 279 18072ft 266kts
08-May-18 16:12 46.841525 -113.598228 279 18073ft 266kts
08-May-18 16:13 46.855611 -113.702918 278 18080ft 266kts
08-May-18 16:14 46.869092 -113.803680 278 18080ft 266kts
08-May-18 16:15 46.883160 -113.909707 278 18072ft 266kts
08-May-18 16:16 46.898053 -114.015786 278 18076ft 266kts
08-May-18 16:17 46.924693 -114.114427 308 18072ft 275kts
08-May-18 16:18 46.975103 -114.198250 307 18072ft 274kts
08-May-18 16:19 47.025115 -114.282349 307 18078ft 274kts
08-May-18 16:20 47.075142 -114.366737 307 18074ft 274kts
08-May-18 16:21 47.111753 -114.459242 290 18072ft 268kts
08-May-18 16:22 47.141364 -114.559537 290 18071ft 268kts
08-May-18 16:23 47.170689 -114.659059 289 18074ft 268kts
08-May-18 16:24 47.199256 -114.759990 289 18075ft 268kts
08-May-18 16:25 47.228295 -114.860361 289 18214ft 265kts
08-May-18 16:26 47.257320 -114.960383 289 18209ft 267kts
08-May-18 16:27 47.286378 -115.060775 290 18208ft 267kts
08-May-18 16:28 47.315506 -115.161809 289 18208ft 267kts
08-May-18 16:29 47.344399 -115.262477 289 18210ft 267kts
08-May-18 16:30 47.373290 -115.363552 290 18207ft 267kts
08-May-18 16:31 47.403823 -115.463378 291 18212ft 267kts
08-May-18 16:32 47.433502 -115.564149 290 18209ft 267kts
08-May-18 16:33 47.457944 -115.665344 273 18247ft 261kts
08-May-18 16:34 47.464626 -115.773282 273 18213ft 263kts
08-May-18 16:35 47.471180 -115.881153 273 18208ft 263kts
08-May-18 16:36 47.477682 -115.988649 273 18018ft 258kts
08-May-18 16:37 47.483685 -116.091066 273 17024ft 247kts
08-May-18 16:38 47.489513 -116.191760 273 16030ft 246kts
08-May-18 16:39 47.495285 -116.292673 273 15146ft 246kts
08-May-18 16:40 47.501027 -116.394623 273 14065ft 258kts
08-May-18 16:41 47.506922 -116.500969 273 12464ft 261kts
08-May-18 16:42 47.512535 -116.603653 273 11989ft 237kts
08-May-18 16:43 47.517855 -116.703738 272 12001ft 263kts
08-May-18 16:44 47.523761 -116.814662 273 11994ft 275kts
08-May-18 16:45 47.530179 -116.927862 273 11994ft 277kts
08-May-18 16:46 47.536015 -117.041667 273 11993ft 277kts
08-May-18 16:47 47.541687 -117.154763 273 10925ft 274kts
08-May-18 16:48 47.547222 -117.267267 274 9268ft 272kts
08-May-18 16:49 47.551932 -117.373530 265 7943ft 240kts
08-May-18 16:50 47.512470 -117.439378 222 7951ft 212kts
08-May-18 16:51 47.468378 -117.499122 222 6197ft 211kts
08-May-18 16:52 47.426908 -117.554908 222 5070ft 181kts
08-May-18 16:53 47.390612 -117.603390 220 5078ft 176kts
08-May-18 16:53 47.395707 -117.653945 310 5016ft 159kts
08-May-18 16:55 47.430586 -117.712212 311 3595ft 154kts
08-May-18 16:56 47.459317 -117.753258 324 4215ft 173kts
08-May-18 16:57 47.495202 -117.728119 49 4175ft 158kts
08-May-18 16:58 47.524487 -117.681193 45 4172ft 151kts
08-May-18 16:59 47.552419 -117.638581 45 4001ft 134kts
08-May-18 17:00 47.573388 -117.606695 45 3262ft 128kts
08-May-18 17:01 47.601357 -117.563198 47 2651ft 116kts
08-May-18 17:02 47.618096 -117.537392 89 2368ft 16kts
08-May-18 17:03 47.618069 -117.536030 91 2368ft 0kts
08-May-18 17:04 47.618059 -117.535702 92 2368ft 5kts
08-May-18 17:05 47.620220 -117.531365 46 2360ft 17kts
08-May-18 17:06 47.623634 -117.526110 72 2354ft 12kts
08-May-18 17:07 47.621149 -117.524988 135 2360ft 11kts
08-May-18 17:08 47.620659 -117.523725 91 2362ft 0kts

Navigation Log

Ident Type
Flight plan parsing failed, navigation log unavailable